Time;durP1;ratioP1;P1;durP2;ratioP2;P2;SDS_P1;SDS_P2;PMS_P1;PMS_P2;Temp;Humidity;BMP_temperature;BMP_pressure;BME280_temperature;BME280_humidity;BME280_pressure;Samples;Min_cycle;Max_cycle;Signal;HPM_P1;HPM_P2
2023/07/27 00:02:18;;;;;;;6.63;1.77;;;23.40;83.00;;;;;;7406307;19;20015;-74
2023/07/27 00:04:47;;;;;;;2.15;1.40;;;23.20;83.80;;;;;;7409242;19;20010;-74
2023/07/27 00:07:15;;;;;;;7.53;1.90;;;23.20;84.40;;;;;;7410047;19;20010;-74
2023/07/27 00:09:47;;;;;;;2.08;1.50;;;23.30;84.30;;;;;;7404105;19;20014;-74
2023/07/27 00:12:15;;;;;;;;;;;23.20;85.00;;;;;;7408061;19;20378;-74
2023/07/27 00:14:44;;;;;;;3.58;1.50;;;23.30;85.10;;;;;;7404941;19;19907;-74
2023/07/27 00:17:15;;;;;;;13.23;1.70;;;23.20;85.50;;;;;;7411052;19;20010;-74
2023/07/27 00:19:43;;;;;;;5.07;1.75;;;23.20;86.10;;;;;;7406819;19;20015;-74
2023/07/27 00:22:12;;;;;;;4.45;1.63;;;23.20;86.00;;;;;;7404545;19;20016;-74
2023/07/27 00:24:41;;;;;;;2.80;1.38;;;23.30;86.00;;;;;;7410935;19;20023;-74
2023/07/27 00:27:12;;;;;;;3.42;1.70;;;23.40;86.10;;;;;;7408129;19;20010;-74
2023/07/27 00:29:40;;;;;;;;;;;23.30;86.20;;;;;;7406945;19;20014;-75
2023/07/27 00:32:10;;;;;;;3.58;1.65;;;23.40;86.10;;;;;;7406102;19;20001;-75
2023/07/27 00:34:39;;;;;;;4.97;1.70;;;23.40;86.10;;;;;;7408398;19;20031;-75
2023/07/27 00:37:08;;;;;;;2.10;1.45;;;23.30;86.70;;;;;;7410784;19;20059;-75
2023/07/27 00:39:38;;;;;;;1.92;1.58;;;23.30;86.60;;;;;;7412694;19;20010;-74
2023/07/27 00:42:08;;;;;;;4.43;1.75;;;23.30;86.70;;;;;;7411620;19;20016;-74
2023/07/27 00:44:39;;;;;;;2.17;1.30;;;23.30;86.90;;;;;;7403435;19;20103;-73
2023/07/27 00:47:08;;;;;;;;;;;23.20;87.10;;;;;;7392525;19;20010;-74
2023/07/27 00:49:39;;;;;;;2.67;1.42;;;23.10;87.40;;;;;;7408236;19;19911;-74
2023/07/27 00:52:09;;;;;;;4.40;1.60;;;23.10;87.70;;;;;;7404921;19;20015;-74
2023/07/27 00:54:38;;;;;;;2.78;1.35;;;23.10;87.60;;;;;;7407513;19;20006;-74
2023/07/27 00:57:08;;;;;;;2.63;1.63;;;23.10;87.60;;;;;;7406028;19;20027;-74
2023/07/27 00:59:42;;;;;;;5.72;1.80;;;23.00;88.30;;;;;;7406529;19;20017;-74
2023/07/27 01:02:10;;;;;;;2.60;1.60;;;22.90;88.50;;;;;;7406517;19;20014;-74
2023/07/27 01:04:41;;;;;;;2.67;1.60;;;23.00;88.10;;;;;;7409878;19;20014;-73
2023/07/27 01:07:10;;;;;;;2.83;1.33;;;23.10;88.00;;;;;;7403860;19;20015;-74
2023/07/27 01:09:41;;;;;;;2.45;1.60;;;23.10;87.70;;;;;;7404458;19;20011;-75
2023/07/27 01:12:18;;;;;;;4.45;1.50;;;23.10;87.70;;;;;;7406359;19;20010;-74
2023/07/27 01:15:02;;;;;;;3.97;1.80;;;23.10;88.00;;;;;;7405738;19;20002;-74
2023/07/27 01:17:36;;;;;;;3.28;1.70;;;23.10;87.70;;;;;;7407901;19;20022;-74
2023/07/27 01:20:25;;;;;;;2.75;1.60;;;23.20;87.60;;;;;;7403397;19;20018;-75
2023/07/27 01:23:14;;;;;;;4.05;1.83;;;23.10;87.60;;;;;;7404010;19;20006;-74
2023/07/27 01:26:09;;;;;;;1.90;1.33;;;23.10;87.80;;;;;;7405949;19;20006;-74
2023/07/27 01:28:56;;;;;;;6.28;1.95;;;23.00;87.80;;;;;;7403339;19;20007;-74
2023/07/27 01:31:29;;;;;;;5.80;1.33;;;23.10;87.90;;;;;;7404342;19;20015;-74
2023/07/27 01:34:02;;;;;;;4.43;1.52;;;23.00;88.00;;;;;;7404588;19;20003;-74
2023/07/27 01:36:43;;;;;;;3.85;1.60;;;22.90;88.20;;;;;;7402403;19;20058;-75
2023/07/27 01:39:15;;;;;;;2.03;1.50;;;22.90;88.10;;;;;;7404182;19;20038;-73
2023/07/27 01:41:45;;;;;;;1.20;1.10;;;22.80;88.10;;;;;;7407307;19;20027;-74
2023/07/27 01:44:15;;;;;;;2.28;1.40;;;22.70;88.30;;;;;;7402910;19;20274;-74
2023/07/27 01:46:47;;;;;;;1.92;1.38;;;22.80;88.20;;;;;;7401579;19;20062;-74
2023/07/27 01:49:16;;;;;;;2.65;1.00;;;22.80;88.00;;;;;;7400441;19;20015;-74
2023/07/27 01:51:45;;;;;;;2.95;1.30;;;22.70;87.80;;;;;;7403025;19;20020;-74
2023/07/27 01:54:17;;;;;;;2.55;1.70;;;22.70;87.80;;;;;;7400109;19;20097;-74
2023/07/27 01:56:48;;;;;;;7.00;1.33;;;22.70;87.90;;;;;;7402064;19;20264;-74
2023/07/27 01:59:18;;;;;;;1.95;1.20;;;22.60;88.30;;;;;;7415149;19;20370;-74
2023/07/27 02:01:50;;;;;;;1.40;1.08;;;22.60;88.30;;;;;;7411802;19;20019;-74
2023/07/27 02:04:18;;;;;;;5.53;1.20;;;22.60;88.30;;;;;;7412611;19;20011;-74
2023/07/27 02:06:51;;;;;;;3.17;1.35;;;22.60;88.20;;;;;;7413670;19;20031;-74
2023/07/27 02:09:20;;;;;;;3.22;1.45;;;22.60;88.30;;;;;;7408093;19;20040;-75
2023/07/27 02:11:56;;;;;;;2.42;1.30;;;22.60;88.30;;;;;;7410351;19;20003;-74
2023/07/27 02:14:31;;;;;;;1.88;1.40;;;22.70;88.20;;;;;;7400914;19;20007;-73
2023/07/27 02:17:10;;;;;;;1.88;1.30;;;22.60;88.10;;;;;;7409045;19;20384;-74
2023/07/27 02:19:42;;;;;;;1.45;1.20;;;22.70;88.00;;;;;;7411645;19;20020;-74
2023/07/27 02:22:12;;;;;;;6.10;1.40;;;22.50;88.60;;;;;;7409493;19;20003;-74
2023/07/27 02:24:42;;;;;;;2.17;1.40;;;22.40;88.80;;;;;;7409348;19;20003;-75
2023/07/27 02:27:11;;;;;;;1.52;1.20;;;22.50;88.70;;;;;;7410465;19;20019;-74
2023/07/27 02:29:39;;;;;;;1.63;1.10;;;22.40;89.00;;;;;;7407167;19;20018;-74
2023/07/27 02:32:13;;;;;;;3.75;1.27;;;22.50;88.80;;;;;;7411848;19;20011;-74
2023/07/27 02:34:42;;;;;;;4.70;1.42;;;22.50;88.70;;;;;;7411567;19;20014;-74
2023/07/27 02:37:10;;;;;;;1.05;1.02;;;22.50;89.70;;;;;;7409030;19;20015;-74
2023/07/27 02:39:39;;;;;;;2.38;1.20;;;22.50;88.80;;;;;;7408702;19;20390;-74
2023/07/27 02:42:08;;;;;;;1.92;1.25;;;22.60;88.80;;;;;;7409378;19;20019;-73
2023/07/27 02:44:37;;;;;;;1.80;1.33;;;22.50;89.00;;;;;;7408476;19;20034;-74
2023/07/27 02:47:06;;;;;;;3.58;1.20;;;22.40;89.30;;;;;;7408593;19;20007;-74
2023/07/27 02:49:37;;;;;;;2.70;1.50;;;22.50;89.30;;;;;;7409583;19;20007;-74
2023/07/27 02:52:07;;;;;;;4.97;1.45;;;22.60;89.10;;;;;;7411435;19;20023;-73
2023/07/27 02:54:35;;;;;;;3.72;1.20;;;22.60;88.90;;;;;;7408523;19;20006;-73
2023/07/27 02:57:04;;;;;;;1.40;1.30;;;22.60;88.90;;;;;;7405393;19;20011;-73
2023/07/27 02:59:33;;;;;;;1.55;1.17;;;22.60;88.90;;;;;;7412640;19;20022;-73
2023/07/27 03:02:01;;;;;;;0.85;0.85;;;22.50;89.30;;;;;;7412474;19;20025;-74
2023/07/27 03:04:31;;;;;;;1.35;1.20;;;22.50;89.40;;;;;;7408520;19;20011;-73
2023/07/27 03:07:03;;;;;;;2.40;1.17;;;22.30;89.60;;;;;;7409345;19;20051;-73
2023/07/27 03:09:31;;;;;;;;;;;22.30;89.70;;;;;;7405330;19;20244;-74
2023/07/27 03:12:01;;;;;;;3.30;1.45;;;22.30;89.70;;;;;;7407497;19;19915;-73
2023/07/27 03:14:30;;;;;;;1.42;1.05;;;22.30;89.60;;;;;;7410802;19;20015;-74
2023/07/27 03:16:58;;;;;;;1.63;1.40;;;22.40;89.70;;;;;;7408748;19;20020;-74
2023/07/27 03:19:28;;;;;;;2.45;1.40;;;22.40;89.70;;;;;;7407773;19;20243;-74
2023/07/27 03:21:57;;;;;;;2.95;1.10;;;22.30;89.80;;;;;;7407945;19;20345;-74
2023/07/27 03:24:30;;;;;;;2.80;1.40;;;22.30;90.00;;;;;;7407264;19;20011;-74
2023/07/27 03:26:58;;;;;;;1.17;1.08;;;22.20;90.00;;;;;;7407464;19;20078;-75
2023/07/27 03:29:27;;;;;;;1.83;1.20;;;22.20;90.10;;;;;;7407958;19;20104;-74
2023/07/27 03:31:58;;;;;;;1.20;1.10;;;22.10;90.30;;;;;;7409865;19;20389;-74
2023/07/27 03:34:27;;;;;;;2.42;1.52;;;22.10;90.30;;;;;;7406832;19;20223;-74
2023/07/27 03:36:55;;;;;;;2.33;1.33;;;22.20;90.30;;;;;;7406894;19;20017;-73
2023/07/27 03:39:24;;;;;;;3.22;1.10;;;22.10;90.40;;;;;;7408348;19;20373;-73
2023/07/27 03:41:58;;;;;;;2.22;1.20;;;22.10;90.50;;;;;;7407080;19;20023;-73
2023/07/27 03:44:27;;;;;;;1.20;1.10;;;22.10;90.50;;;;;;7406723;19;20223;-74
2023/07/27 03:46:55;;;;;;;1.48;1.38;;;22.10;90.90;;;;;;7405169;19;20006;-74
2023/07/27 03:49:24;;;;;;;2.13;1.30;;;22.20;90.50;;;;;;7405516;19;20010;-75
2023/07/27 03:51:53;;;;;;;2.95;1.27;;;22.10;90.40;;;;;;7407079;19;20360;-75
2023/07/27 03:54:22;;;;;;;2.63;1.20;;;22.00;90.70;;;;;;7407100;19;22353;-75
2023/07/27 03:56:50;;;;;;;1.80;1.20;;;22.10;90.70;;;;;;7409707;19;20022;-75
2023/07/27 03:59:22;;;;;;;3.05;1.50;;;21.90;90.90;;;;;;7409698;19;20019;-74
2023/07/27 04:01:53;;;;;;;1.67;1.10;;;21.70;91.40;;;;;;7408987;19;20003;-76
2023/07/27 04:04:21;;;;;;;1.20;1.00;;;21.70;91.40;;;;;;7408881;19;20011;-74
2023/07/27 04:06:50;;;;;;;2.60;1.33;;;21.90;91.20;;;;;;7412922;19;20034;-74
2023/07/27 04:09:19;;;;;;;2.95;1.35;;;21.90;91.10;;;;;;7408877;19;20006;-74
2023/07/27 04:11:48;;;;;;;2.47;1.35;;;22.10;91.00;;;;;;7414450;19;20007;-73
2023/07/27 04:14:21;;;;;;;3.97;1.17;;;22.20;90.80;;;;;;7413201;19;20010;-73
2023/07/27 04:16:50;;;;;;;1.20;1.02;;;22.30;90.70;;;;;;7407709;19;20103;-74
2023/07/27 04:19:19;;;;;;;4.50;1.25;;;22.20;90.60;;;;;;7409022;19;20015;-73
2023/07/27 04:21:47;;;;;;;1.08;1.00;;;22.20;90.70;;;;;;7408761;19;20111;-74
2023/07/27 04:24:16;;;;;;;5.05;1.25;;;22.00;91.10;;;;;;7410724;19;20271;-74
2023/07/27 04:26:45;;;;;;;2.00;1.25;;;22.00;91.00;;;;;;7408955;19;20014;-73
2023/07/27 04:29:13;;;;;;;2.10;1.10;;;22.20;91.00;;;;;;7405144;19;20020;-73
2023/07/27 04:31:45;;;;;;;2.67;1.20;;;22.30;90.90;;;;;;7409002;19;20010;-74
2023/07/27 04:34:13;;;;;;;;;;;22.30;90.70;;;;;;7406689;19;20032;-74
2023/07/27 04:36:42;;;;;;;3.35;1.58;;;22.40;90.60;;;;;;7405625;19;19924;-74
2023/07/27 04:39:10;;;;;;;1.70;1.23;;;22.20;90.70;;;;;;7405841;19;20003;-74
2023/07/27 04:41:39;;;;;;;1.90;1.35;;;22.30;90.80;;;;;;7407773;19;20007;-74
2023/07/27 04:44:08;;;;;;;2.10;1.20;;;22.20;91.00;;;;;;7406074;19;20006;-74
2023/07/27 04:46:37;;;;;;;1.15;1.05;;;22.20;91.10;;;;;;7405064;19;20011;-74
2023/07/27 04:49:09;;;;;;;1.20;1.10;;;22.20;91.00;;;;;;7408457;19;20038;-74
2023/07/27 04:51:38;;;;;;;1.30;1.02;;;22.00;91.20;;;;;;7405055;19;20021;-73
2023/07/27 04:54:08;;;;;;;1.27;1.15;;;22.00;91.40;;;;;;7404445;19;20369;-73
2023/07/27 04:56:37;;;;;;;4.63;1.50;;;22.20;91.30;;;;;;7405991;19;20031;-74
2023/07/27 04:59:05;;;;;;;1.88;1.20;;;22.30;91.20;;;;;;7406897;19;20368;-73
2023/07/27 05:01:34;;;;;;;1.42;1.25;;;22.10;91.20;;;;;;7405359;19;20009;-73
2023/07/27 05:04:03;;;;;;;2.22;1.40;;;22.30;91.20;;;;;;7403004;19;20010;-74
2023/07/27 05:06:34;;;;;;;2.30;1.55;;;22.30;91.10;;;;;;7406735;19;20015;-73
2023/07/27 05:09:03;;;;;;;;;;;22.20;91.10;;;;;;7403273;19;20365;-74
2023/07/27 05:11:32;;;;;;;2.97;1.80;;;22.30;91.30;;;;;;7406233;19;19915;-74
2023/07/27 05:14:00;;;;;;;6.90;1.90;;;22.20;91.20;;;;;;7408505;19;20007;-74
2023/07/27 05:16:29;;;;;;;2.88;1.50;;;22.20;91.10;;;;;;7403867;19;20031;-73
2023/07/27 05:18:58;;;;;;;1.95;1.33;;;22.30;91.00;;;;;;7403442;19;20244;-73
2023/07/27 05:21:27;;;;;;;3.70;1.75;;;22.20;91.10;;;;;;7403632;19;20014;-73
2023/07/27 05:26:33;;;;;;;2.38;1.60;;;22.20;91.20;;;;;;7376790;19;20028;-73
2023/07/27 05:29:02;;;;;;;;;;;22.10;91.20;;;;;;7405845;19;20011;-73
2023/07/27 05:31:30;;;;;;;2.10;1.63;;;22.10;91.50;;;;;;7403930;19;19923;-72
2023/07/27 05:34:00;;;;;;;4.68;1.90;;;22.10;91.40;;;;;;7407049;19;20066;-74
2023/07/27 05:36:28;;;;;;;4.50;1.92;;;22.20;91.40;;;;;;7407991;19;20007;-74
2023/07/27 05:38:57;;;;;;;1.80;1.63;;;22.20;91.30;;;;;;7407555;19;20357;-74
2023/07/27 05:41:26;;;;;;;5.25;1.92;;;22.30;91.20;;;;;;7406868;19;20017;-74
2023/07/27 05:43:59;;;;;;;2.78;2.00;;;22.30;91.10;;;;;;7413863;19;20011;-74
2023/07/27 05:46:27;;;;;;;2.13;1.60;;;22.30;91.00;;;;;;7412227;19;20006;-73
2023/07/27 05:48:56;;;;;;;2.05;1.70;;;22.10;91.20;;;;;;7411461;19;20006;-74
2023/07/27 05:51:25;;;;;;;4.03;1.70;;;22.20;91.30;;;;;;7411886;19;20010;-73
2023/07/27 05:53:56;;;;;;;1.40;1.30;;;22.30;91.20;;;;;;7411715;19;20014;-74
2023/07/27 05:56:25;;;;;;;4.82;2.17;;;22.30;91.20;;;;;;7415623;19;20011;-74
2023/07/27 05:58:56;;;;;;;2.90;1.70;;;22.40;91.20;;;;;;7412675;19;20283;-74
2023/07/27 06:01:25;;;;;;;;;;;22.40;91.10;;;;;;7414323;19;20240;-74
2023/07/27 06:03:53;;;;;;;2.15;1.63;;;22.40;91.10;;;;;;7414134;19;19907;-74
2023/07/27 06:06:22;;;;;;;1.80;1.70;;;22.40;91.00;;;;;;7413220;19;20010;-73
2023/07/27 06:08:50;;;;;;;4.93;1.92;;;22.20;91.40;;;;;;7412047;19;20072;-74
2023/07/27 06:11:19;;;;;;;2.13;1.90;;;22.30;91.40;;;;;;7413375;19;19999;-75
2023/07/27 06:13:48;;;;;;;2.00;1.80;;;22.20;91.30;;;;;;7415117;19;20017;-74
2023/07/27 06:16:19;;;;;;;3.38;1.85;;;22.20;91.40;;;;;;7414202;19;20267;-74
2023/07/27 06:18:48;;;;;;;;;;;22.30;91.40;;;;;;7415473;19;20291;-74
2023/07/27 06:21:16;;;;;;;1.50;1.40;;;22.30;91.10;;;;;;7411221;19;19910;-74
2023/07/27 06:23:45;;;;;;;2.60;1.70;;;22.40;90.90;;;;;;7409641;19;20006;-74
2023/07/27 06:26:14;;;;;;;1.95;1.65;;;22.40;90.90;;;;;;7408592;19;20011;-74
2023/07/27 06:28:42;;;;;;;2.33;1.33;;;22.50;90.90;;;;;;7409570;19;19999;-74
2023/07/27 06:31:11;;;;;;;2.25;1.50;;;22.60;90.80;;;;;;7418358;19;20222;-74
2023/07/27 06:33:42;;;;;;;2.05;1.70;;;22.50;90.80;;;;;;7414351;19;20014;-74
2023/07/27 06:36:11;;;;;;;;;;;22.60;90.70;;;;;;7412538;19;20237;-74
2023/07/27 06:38:40;;;;;;;3.03;1.50;;;22.50;90.90;;;;;;7408914;19;19966;-74
2023/07/27 06:41:09;;;;;;;2.35;1.52;;;22.50;90.90;;;;;;7408497;19;20409;-73
2023/07/27 06:43:38;;;;;;;1.70;1.60;;;22.50;91.00;;;;;;7407052;19;20011;-72
2023/07/27 06:48:46;;;;;;;2.80;1.45;;;22.30;91.20;;;;;;7336960;19;20010;-78
2023/07/27 06:51:14;;;;;;;9.35;1.50;;;22.10;91.10;;;;;;7374490;19;20003;-76
2023/07/27 06:53:45;;;;;;;2.97;1.40;;;22.20;91.00;;;;;;7389629;19;20240;-77
2023/07/27 06:56:20;;;;;;;2.47;1.55;;;22.20;91.20;;;;;;7407877;19;20278;-76
2023/07/27 06:58:49;;;;;;;2.22;1.50;;;22.20;90.50;;;;;;7386492;19;20002;-76
2023/07/27 07:01:18;;;;;;;2.35;1.63;;;22.30;90.60;;;;;;7392098;19;20325;-78
2023/07/27 07:03:51;;;;;;;2.65;1.80;;;22.10;89.90;;;;;;7391752;19;20002;-77
2023/07/27 07:06:43;;;;;;;11.25;2.00;;;22.20;89.20;;;;;;7390289;19;20013;-79
2023/07/27 07:09:12;;;;;;;;;;;21.90;88.60;;;;;;7388436;19;20006;-77
2023/07/27 07:11:42;;;;;;;;;;;21.70;87.60;;;;;;7386094;19;19910;-76
2023/07/27 07:14:10;;;;;;;4.43;2.08;;;21.50;87.90;;;;;;7412337;19;20021;-79
2023/07/27 07:16:39;;;;;;;4.50;2.37;;;21.50;88.30;;;;;;7392339;19;20003;-77
2023/07/27 07:19:11;;;;;;;4.50;2.35;;;21.70;88.10;;;;;;7391454;19;20319;-79
2023/07/27 07:25:26;;;;;;;7.35;3.00;;;21.80;87.30;;;;;;7390721;19;19946;-81
2023/07/27 07:28:23;;;;;;;7.47;2.53;;;22.00;86.90;;;;;;7394224;19;20011;-79
2023/07/27 07:31:02;;;;;;;7.53;2.70;;;22.00;86.20;;;;;;7394964;19;20006;-81
2023/07/27 07:33:30;;;;;;;6.15;3.13;;;21.90;86.90;;;;;;7393342;19;20395;-78
2023/07/27 07:36:02;;;;;;;6.43;2.65;;;22.10;86.80;;;;;;7393022;19;20062;-78
2023/07/27 07:38:31;;;;;;;6.30;2.70;;;21.90;86.30;;;;;;7415825;19;19999;-80
2023/07/27 07:41:03;;;;;;;11.77;3.05;;;21.90;86.80;;;;;;7394445;19;20006;-80
2023/07/27 07:43:39;;;;;;;5.18;2.55;;;22.00;86.50;;;;;;7392363;19;20006;-78
2023/07/27 07:46:11;;;;;;;5.15;2.42;;;21.90;86.10;;;;;;7394255;19;20034;-77
2023/07/27 07:48:40;;;;;;;5.30;2.10;;;21.90;86.10;;;;;;7390825;19;20002;-73
2023/07/27 07:51:15;;;;;;;5.43;2.10;;;21.90;86.10;;;;;;7389544;19;20010;-74
2023/07/27 07:53:44;;;;;;;2.47;1.88;;;21.90;85.90;;;;;;7380972;19;20027;-77
2023/07/27 07:56:15;;;;;;;5.25;1.90;;;22.00;85.60;;;;;;7415179;19;20010;-76
2023/07/27 07:58:47;;;;;;;5.30;2.10;;;22.00;85.80;;;;;;7389833;19;20244;-77
2023/07/27 08:01:15;;;;;;;;;;;21.90;85.70;;;;;;7386548;19;20007;-76
2023/07/27 08:03:44;;;;;;;2.78;1.83;;;22.00;86.20;;;;;;7385788;19;19923;-73
2023/07/27 08:06:17;;;;;;;11.32;2.13;;;22.30;85.80;;;;;;7384621;19;20021;-74
2023/07/27 08:08:46;;;;;;;3.63;1.90;;;22.50;85.30;;;;;;7383987;19;20023;-74
2023/07/27 08:11:15;;;;;;;2.20;1.75;;;22.60;84.50;;;;;;7403408;19;20023;-75
2023/07/27 08:13:44;;;;;;;7.50;1.75;;;22.60;83.70;;;;;;7384514;19;20003;-73
2023/07/27 08:16:13;;;;;;;3.72;1.65;;;22.60;83.90;;;;;;7384890;19;20003;-74
2023/07/27 08:18:42;;;;;;;2.25;1.70;;;22.70;84.60;;;;;;7384189;19;20003;-73
2023/07/27 08:21:11;;;;;;;2.70;1.48;;;22.80;84.20;;;;;;7386434;19;20006;-74
2023/07/27 08:23:57;;;;;;;;;;;;;;;;;;;;;
2023/07/27 08:26:28;;;;;;;3.92;1.83;;;22.80;84.10;;;;;;7409271;19;20017;-75
2023/07/27 08:28:57;;;;;;;9.27;1.95;;;22.70;84.20;;;;;;7384361;19;20262;-74
2023/07/27 08:31:25;;;;;;;4.65;1.90;;;22.70;84.50;;;;;;7383412;19;20006;-77
2023/07/27 08:33:54;;;;;;;3.10;1.67;;;22.50;84.70;;;;;;7382553;19;20066;-74
2023/07/27 08:36:23;;;;;;;1.90;1.40;;;22.40;84.50;;;;;;7383285;19;20018;-73
2023/07/27 08:38:54;;;;;;;3.20;1.75;;;22.60;85.00;;;;;;7385740;19;20015;-72
2023/07/27 08:41:23;;;;;;;;;;;22.70;84.90;;;;;;7407590;19;20024;-72
2023/07/27 08:43:52;;;;;;;2.50;2.00;;;22.80;84.50;;;;;;7382355;19;19964;-75
2023/07/27 08:46:22;;;;;;;4.28;1.77;;;22.90;84.10;;;;;;7382059;19;20014;-74
2023/07/27 08:48:52;;;;;;;5.95;1.60;;;22.90;83.80;;;;;;7382110;19;20010;-73
2023/07/27 08:51:21;;;;;;;4.10;2.10;;;22.90;83.60;;;;;;7382343;19;20003;-74
2023/07/27 08:53:50;;;;;;;6.10;1.73;;;22.90;83.70;;;;;;7382880;19;20013;-75
2023/07/27 08:56:21;;;;;;;2.20;1.48;;;22.90;84.10;;;;;;7403617;19;20011;-75
2023/07/27 08:58:49;;;;;;;;;;;23.10;83.40;;;;;;7381650;19;20020;-75
2023/07/27 09:01:18;;;;;;;3.88;1.35;;;23.10;83.10;;;;;;7381397;19;19920;-71
2023/07/27 09:03:48;;;;;;;1.42;1.30;;;22.80;83.20;;;;;;7383183;19;20072;-74
2023/07/27 09:06:18;;;;;;;1.60;1.17;;;22.90;83.30;;;;;;7380593;19;20015;-74
2023/07/27 09:08:49;;;;;;;2.72;1.40;;;23.00;83.30;;;;;;7380325;19;20352;-73
2023/07/27 09:11:25;;;;;;;5.57;1.27;;;23.00;83.20;;;;;;7401890;19;20023;-75
2023/07/27 09:14:05;;;;;;;2.63;1.40;;;22.90;83.00;;;;;;7381424;19;20002;-74
2023/07/27 09:16:37;;;;;;;4.15;1.50;;;22.80;83.10;;;;;;7381700;19;20054;-75
2023/07/27 09:19:07;;;;;;;2.40;1.30;;;22.90;83.80;;;;;;7382473;19;20013;-73
2023/07/27 09:21:44;;;;;;;2.50;1.60;;;23.00;83.00;;;;;;7383985;19;20010;-76
2023/07/27 09:24:13;;;;;;;5.00;1.90;;;22.90;82.50;;;;;;7387412;19;20002;-76
2023/07/27 09:26:53;;;;;;;2.38;1.60;;;22.90;83.00;;;;;;7387801;19;20006;-72
2023/07/27 09:29:26;;;;;;;4.25;1.70;;;22.80;83.30;;;;;;7406229;19;20015;-74
2023/07/27 09:32:01;;;;;;;2.35;1.77;;;22.90;83.30;;;;;;7383438;19;20026;-73
2023/07/27 09:34:32;;;;;;;4.55;2.00;;;23.00;82.90;;;;;;7385158;19;20011;-74
2023/07/27 09:37:05;;;;;;;3.08;2.00;;;23.20;82.10;;;;;;7382861;19;20010;-74
2023/07/27 09:39:37;;;;;;;3.13;1.83;;;23.40;82.00;;;;;;7381958;19;20014;-74
2023/07/27 09:42:10;;;;;;;2.90;1.90;;;23.40;81.30;;;;;;7382053;19;20032;-74
2023/07/27 09:44:52;;;;;;;6.93;1.90;;;23.40;81.10;;;;;;7381998;19;20006;-74
2023/07/27 09:47:23;;;;;;;2.65;2.00;;;23.50;81.10;;;;;;7405051;19;20018;-74
2023/07/27 09:49:53;;;;;;;2.58;1.65;;;23.70;81.10;;;;;;7384151;19;20247;-74
2023/07/27 09:52:24;;;;;;;2.53;1.98;;;23.90;80.30;;;;;;7384436;19;20011;-76
2023/07/27 09:54:56;;;;;;;4.80;2.40;;;23.90;80.50;;;;;;7382044;19;20007;-73
2023/07/27 09:57:29;;;;;;;2.90;2.00;;;23.90;80.30;;;;;;7381315;19;20062;-74
2023/07/27 09:59:57;;;;;;;4.60;2.38;;;24.00;79.70;;;;;;7382931;19;20006;-73
2023/07/27 10:02:29;;;;;;;5.22;2.40;;;23.90;79.70;;;;;;7402987;19;20014;-72
2023/07/27 10:04:57;;;;;;;3.47;2.17;;;23.80;81.00;;;;;;7380194;19;20028;-75
2023/07/27 10:07:29;;;;;;;2.65;2.08;;;24.00;79.90;;;;;;7382900;19;20010;-75
2023/07/27 10:10:30;;;;;;;4.15;2.05;;;24.00;80.00;;;;;;7392142;19;20006;-75
2023/07/27 10:13:07;;;;;;;6.32;2.05;;;24.00;79.60;;;;;;7382653;19;20240;-74
2023/07/27 10:15:43;;;;;;;4.03;2.40;;;24.00;79.50;;;;;;7379430;19;20006;-76
2023/07/27 10:18:16;;;;;;;3.80;2.47;;;24.10;79.90;;;;;;7382036;19;20272;-75
2023/07/27 10:20:52;;;;;;;3.30;2.40;;;24.10;80.30;;;;;;7390075;19;20166;-75
2023/07/27 10:23:28;;;;;;;3.15;2.40;;;24.10;79.10;;;;;;7414382;19;20007;-76
2023/07/27 10:26:12;;;;;;;5.53;2.03;;;24.30;79.30;;;;;;7390864;19;20027;-77
2023/07/27 10:28:48;;;;;;;2.88;2.05;;;24.30;78.00;;;;;;7388448;19;20010;-75
2023/07/27 10:32:02;;;;;;;2.58;2.00;;;24.30;78.30;;;;;;7391038;19;20003;-82
2023/07/27 10:34:32;;;;;;;4.03;1.90;;;24.30;78.80;;;;;;7392094;19;20010;-76
2023/07/27 10:37:14;;;;;;;2.00;1.80;;;24.20;78.70;;;;;;7388909;19;20011;-81
2023/07/27 10:39:48;;;;;;;3.42;2.10;;;24.20;78.80;;;;;;7390739;19;20011;-77
2023/07/27 10:42:18;;;;;;;5.15;2.08;;;24.10;78.80;;;;;;7392212;19;20260;-78
2023/07/27 10:48:01;;;;;;;3.43;2.20;;;23.90;79.30;;;;;;7391569;19;20415;-81
2023/07/27 10:50:29;;;;;;;3.08;2.00;;;23.90;79.70;;;;;;7409603;19;20018;-71
2023/07/27 10:53:01;;;;;;;3.97;2.20;;;23.70;80.60;;;;;;7398706;19;19999;-80
2023/07/27 10:55:30;;;;;;;2.80;2.33;;;23.70;80.30;;;;;;7397058;19;20366;-79
2023/07/27 10:58:02;;;;;;;3.58;2.55;;;23.80;80.10;;;;;;7390888;19;20379;-77
2023/07/27 11:00:38;;;;;;;7.53;2.83;;;23.70;80.00;;;;;;7393325;19;20237;-77
2023/07/27 11:03:13;;;;;;;4.20;2.67;;;23.80;80.30;;;;;;7390614;19;20003;-76
2023/07/27 11:05:42;;;;;;;8.90;2.95;;;23.80;80.00;;;;;;7386259;19;20017;-75
2023/07/27 11:08:12;;;;;;;5.90;3.10;;;23.70;80.80;;;;;;7409214;19;20003;-77
2023/07/27 11:10:41;;;;;;;4.90;3.03;;;23.60;80.80;;;;;;7386671;19;20083;-76
2023/07/27 11:13:12;;;;;;;4.03;2.83;;;23.50;81.60;;;;;;7388644;19;20259;-77
2023/07/27 11:15:41;;;;;;;4.72;2.75;;;23.50;81.10;;;;;;7389231;19;20010;-78
2023/07/27 11:18:26;;;;;;;6.20;3.00;;;23.50;81.10;;;;;;7387860;19;20359;-80
2023/07/27 11:20:55;;;;;;;5.25;2.97;;;23.50;81.10;;;;;;7390319;19;20032;-77
2023/07/27 11:23:27;;;;;;;6.03;3.38;;;23.50;81.30;;;;;;7411047;19;20018;-80
2023/07/27 11:25:59;;;;;;;4.75;2.72;;;23.60;81.40;;;;;;7386543;19;20003;-76
2023/07/27 11:28:29;;;;;;;4.88;3.30;;;23.70;81.10;;;;;;7386156;19;20002;-74
2023/07/27 11:30:58;;;;;;;7.72;3.25;;;23.90;80.70;;;;;;7385040;19;20003;-74
2023/07/27 11:33:35;;;;;;;5.95;3.08;;;23.70;81.00;;;;;;7385206;19;20006;-74
2023/07/27 11:36:04;;;;;;;7.78;3.72;;;23.60;81.10;;;;;;7385679;19;20015;-75
2023/07/27 11:38:33;;;;;;;9.30;3.33;;;23.70;81.50;;;;;;7409049;19;20257;-74
2023/07/27 11:41:02;;;;;;;8.55;3.72;;;23.70;81.40;;;;;;7388263;19;20003;-76
2023/07/27 11:43:31;;;;;;;7.53;4.20;;;23.30;82.80;;;;;;7388108;19;20007;-75
2023/07/27 11:46:01;;;;;;;6.95;3.88;;;23.20;84.30;;;;;;7388544;19;20002;-74
2023/07/27 11:48:33;;;;;;;8.45;4.28;;;23.10;86.40;;;;;;7388430;19;20009;-75
2023/07/27 11:51:03;;;;;;;8.57;3.95;;;22.70;86.60;;;;;;7389139;19;20062;-74
2023/07/27 11:53:31;;;;;;;9.05;3.72;;;22.70;88.20;;;;;;7413323;19;20014;-73
2023/07/27 11:56:00;;;;;;;7.82;3.88;;;22.70;88.90;;;;;;7384980;19;19999;-73
2023/07/27 11:58:32;;;;;;;10.60;3.90;;;22.40;90.10;;;;;;7384311;19;20012;-74
2023/07/27 12:01:02;;;;;;;7.15;4.13;;;22.50;90.70;;;;;;7384789;19;20392;-76
2023/07/27 12:03:34;;;;;;;8.70;3.85;;;22.50;90.60;;;;;;7385602;19;20054;-75
2023/07/27 12:06:04;;;;;;;8.82;3.53;;;22.50;90.60;;;;;;7388049;19;20093;-75
2023/07/27 12:08:37;;;;;;;7.30;4.27;;;22.70;90.40;;;;;;7410506;19;20038;-76
2023/07/27 12:11:06;;;;;;;6.95;4.25;;;22.50;90.30;;;;;;7387520;19;20259;-74
2023/07/27 12:13:37;;;;;;;8.43;4.10;;;22.60;89.40;;;;;;7383997;19;20003;-73
2023/07/27 12:16:07;;;;;;;;;;;22.80;90.00;;;;;;7385905;19;20357;-75
2023/07/27 12:18:38;;;;;;;5.03;3.88;;;22.90;89.90;;;;;;7384144;19;19927;-77
2023/07/27 12:21:07;;;;;;;10.77;3.88;;;23.10;88.90;;;;;;7383724;19;20075;-76
2023/07/27 12:23:41;;;;;;;6.15;4.05;;;23.40;88.50;;;;;;7390787;19;20006;-75
2023/07/27 12:26:30;;;;;;;10.68;4.68;;;23.50;87.50;;;;;;7408960;19;20011;-81
2023/07/27 12:29:06;;;;;;;9.38;4.20;;;23.50;86.50;;;;;;7388858;19;20014;-84
2023/07/27 12:31:53;;;;;;;4.95;3.42;;;23.60;86.20;;;;;;7386853;19;20007;-87
2023/07/27 12:37:36;;;;;;;6.85;3.60;;;23.90;85.30;;;;;;7384134;19;20020;-81
2023/07/27 12:40:03;;;;;;;7.47;3.80;;;23.90;84.30;;;;;;7385509;19;20011;-76
2023/07/27 12:42:31;;;;;;;7.32;4.07;;;24.00;85.00;;;;;;7382273;19;20281;-77
2023/07/27 12:45:00;;;;;;;13.82;3.67;;;24.10;84.00;;;;;;7384459;19;20015;-78
2023/07/27 12:47:31;;;;;;;7.72;4.20;;;24.10;84.20;;;;;;7404799;19;20348;-77
2023/07/27 12:50:04;;;;;;;6.65;4.00;;;24.00;83.20;;;;;;7391894;19;20009;-79
2023/07/27 12:52:39;;;;;;;11.43;3.90;;;24.00;84.50;;;;;;7385350;19;20006;-80
2023/07/27 12:55:09;;;;;;;7.13;3.85;;;24.00;84.60;;;;;;7388064;19;20021;-78
2023/07/27 12:57:42;;;;;;;7.20;4.07;;;23.80;85.90;;;;;;7391024;19;20006;-81
2023/07/27 13:00:13;;;;;;;7.75;4.53;;;23.70;88.70;;;;;;7394447;19;20027;-80
2023/07/27 13:02:42;;;;;;;8.27;3.88;;;23.60;89.90;;;;;;7392703;19;20026;-76
2023/07/27 13:05:19;;;;;;;7.45;3.90;;;23.60;90.20;;;;;;7407814;19;20025;-75
2023/07/27 13:07:49;;;;;;;10.27;4.28;;;23.50;90.40;;;;;;7385406;19;20231;-75
2023/07/27 13:10:19;;;;;;;7.18;3.88;;;23.50;91.20;;;;;;7385762;19;20229;-76
2023/07/27 13:12:48;;;;;;;7.00;4.13;;;23.20;91.40;;;;;;7386216;19;20015;-75
2023/07/27 13:15:20;;;;;;;6.05;3.80;;;23.10;91.70;;;;;;7385410;19;20240;-75
2023/07/27 13:17:49;;;;;;;5.80;3.90;;;23.10;92.50;;;;;;7383671;19;20007;-74
2023/07/27 13:20:20;;;;;;;8.80;4.38;;;23.00;92.70;;;;;;7408940;19;20011;-75
2023/07/27 13:22:49;;;;;;;7.05;4.00;;;23.00;93.10;;;;;;7389327;19;20007;-75
2023/07/27 13:25:18;;;;;;;6.95;3.97;;;23.00;93.50;;;;;;7386587;19;20011;-76
2023/07/27 13:27:51;;;;;;;7.70;4.47;;;22.90;93.40;;;;;;7387264;19;20014;-76
2023/07/27 13:30:21;;;;;;;8.25;3.83;;;23.10;94.00;;;;;;7390740;19;20026;-77